»·PEaware :: SWA297 KPHX-KABQ

SWA297 :: KPHX-KABQ

FLIGHT INFORMATION

Flight Status: Arrived
Operator:
Southwest Airlines
More flights by this operator :: More flights under this callsign
Pilot: Anonymous 34646 (34646)
Aircraft: BOEING 737-700
(B737)
More flights by this aircraft type
Origin: KPHX Phoenix Sky Harbor Intl
United States
Destination: KABQ Albuquerque Intl Sunport
United States
More flights between these airports :: More routes between these airports
Route: FORPE1 FORPE KRKEE KRKEE3
File this flight plan on PilotEdge
Remarks: RMK / SIMBRIEF
Altitude:
(Current/Filed)
35,000ft
Speed:
(Current/Filed)
452kts
Departed: 10-Jun-21 08:15 PM
Arrived: 10-Jun-21 09:04 PM
Distance/Time
Traveled:
285nm/0:49
Distance/Time
To Go:
Arrived

Flight Plot

Page will automatically refresh every two minutes.

Flight plan parsing failed; only flown route is shown


Map Options




Map Legend


Flown Route
Filed Route
Departure Airport
Arrival Airport
Navaid (VOR, NDB)
Fix

Horizontal Profiles

Position Reports

Time Latitude Longitude Heading Altitude Ground
Speed
10-Jun-21 19:47 33.434385 -111.998615 268 1143ft 0kts
10-Jun-21 19:48 33.434385 -111.998615 268 1143ft 0kts
10-Jun-21 19:50 33.434385 -111.998615 268 1143ft 0kts
10-Jun-21 19:51 33.434385 -111.998615 268 1143ft 0kts
10-Jun-21 19:52 33.434385 -111.998615 268 1143ft 0kts
10-Jun-21 19:53 33.434385 -111.998615 268 1143ft 0kts
10-Jun-21 19:54 33.434385 -111.998615 268 1143ft 0kts
10-Jun-21 19:55 33.434385 -111.998615 268 1143ft 0kts
10-Jun-21 19:56 33.434385 -111.998615 268 1143ft 0kts
10-Jun-21 19:57 33.434385 -111.998615 268 1143ft 0kts
10-Jun-21 19:58 33.434385 -111.998615 268 1143ft 0kts
10-Jun-21 19:59 33.434385 -111.998615 268 1143ft 0kts
10-Jun-21 20:00 33.434385 -111.998615 268 1143ft 0kts
10-Jun-21 20:01 33.434385 -111.998615 268 1143ft 0kts
10-Jun-21 20:02 33.434385 -111.998594 268 1143ft 2kts
10-Jun-21 20:03 33.434400 -111.997888 268 1143ft 0kts
10-Jun-21 20:04 33.434400 -111.997888 268 1143ft 0kts
10-Jun-21 20:05 33.434400 -111.997888 268 1143ft 0kts
10-Jun-21 20:06 33.434400 -111.997888 268 1143ft 0kts
10-Jun-21 20:07 33.434400 -111.997888 268 1143ft 0kts
10-Jun-21 20:08 33.434400 -111.997888 268 1143ft 0kts
10-Jun-21 20:09 33.434197 -111.998126 183 1143ft 4kts
10-Jun-21 20:10 33.432848 -111.997814 101 1143ft 9kts
10-Jun-21 20:11 33.432834 -111.995093 87 1143ft 5kts
10-Jun-21 20:11 33.432478 -111.993590 177 1143ft 6kts
10-Jun-21 20:13 33.432121 -111.993581 178 1143ft 0kts
10-Jun-21 20:14 33.431358 -111.993574 180 1143ft 8kts
10-Jun-21 20:14 33.431026 -112.005507 269 1143ft 123kts
10-Jun-21 20:15 33.431578 -112.059210 269 2852ft 188kts
10-Jun-21 20:17 33.433808 -112.142009 270 5915ft 227kts
10-Jun-21 20:18 33.467526 -112.207595 345 7948ft 273kts
10-Jun-21 20:18 33.530532 -112.195706 13 8019ft 277kts
10-Jun-21 20:20 33.622293 -112.161291 35 10363ft 313kts
10-Jun-21 20:21 33.688996 -112.077686 46 12398ft 374kts
10-Jun-21 20:21 33.742656 -111.994093 72 14764ft 391kts
10-Jun-21 20:22 33.739789 -111.862841 101 17165ft 403kts
10-Jun-21 20:24 33.724679 -111.704865 99 18915ft 415kts
10-Jun-21 20:24 33.715183 -111.588228 99 20235ft 427kts
10-Jun-21 20:25 33.702790 -111.444052 99 22533ft 442kts
10-Jun-21 20:26 33.691231 -111.293612 92 24155ft 470kts
10-Jun-21 20:27 33.722417 -111.137701 71 25787ft 491kts
10-Jun-21 20:28 33.768627 -110.981095 72 27328ft 503kts
10-Jun-21 20:29 33.814607 -110.820185 72 28711ft 514kts
10-Jun-21 20:30 33.861270 -110.656080 72 29937ft 524kts
10-Jun-21 20:31 33.907921 -110.489884 72 31490ft 523kts
10-Jun-21 20:32 33.953975 -110.324666 72 33208ft 518kts
10-Jun-21 20:33 33.999431 -110.160601 72 34807ft 513kts
10-Jun-21 20:34 34.044707 -109.996246 72 35252ft 517kts
10-Jun-21 20:35 34.089450 -109.832859 72 35255ft 514kts
10-Jun-21 20:36 34.134198 -109.668484 72 35240ft 515kts
10-Jun-21 20:37 34.178595 -109.504421 73 35220ft 515kts
10-Jun-21 20:38 34.222838 -109.339940 73 35193ft 515kts
10-Jun-21 20:39 34.266844 -109.175356 72 35175ft 515kts
10-Jun-21 20:40 34.310720 -109.010260 72 35197ft 515kts
10-Jun-21 20:41 34.354396 -108.844914 72 35201ft 515kts
10-Jun-21 20:42 34.397781 -108.679649 72 35206ft 515kts
10-Jun-21 20:43 34.440810 -108.514740 72 34877ft 514kts
10-Jun-21 20:44 34.483525 -108.350013 73 33065ft 508kts
10-Jun-21 20:45 34.524955 -108.189269 73 30929ft 492kts
10-Jun-21 20:46 34.564961 -108.034181 74 28729ft 471kts
10-Jun-21 20:47 34.602575 -107.885659 74 26021ft 451kts
10-Jun-21 20:48 34.647618 -107.746422 62 23609ft 438kts
10-Jun-21 20:49 34.703783 -107.618261 62 22113ft 423kts
10-Jun-21 20:50 34.757796 -107.493304 63 20611ft 411kts
10-Jun-21 20:51 34.809971 -107.370913 63 18779ft 407kts
10-Jun-21 20:52 34.860771 -107.250793 63 16716ft 385kts
10-Jun-21 20:53 34.901886 -107.134776 78 15555ft 350kts
10-Jun-21 20:54 34.916258 -107.018532 82 13796ft 344kts
10-Jun-21 20:55 34.929423 -106.905212 82 12033ft 326kts
10-Jun-21 20:56 34.942263 -106.794626 82 10283ft 325kts
10-Jun-21 20:57 34.953346 -106.693919 86 9875ft 278kts
10-Jun-21 20:58 34.955095 -106.601613 89 8660ft 263kts
10-Jun-21 20:59 34.975420 -106.532154 41 7620ft 198kts
10-Jun-21 21:00 35.019975 -106.509553 354 6707ft 159kts
10-Jun-21 21:01 35.043725 -106.546678 271 5880ft 152kts
10-Jun-21 21:02 35.044123 -106.592955 270 5320ft 90kts
10-Jun-21 21:03 35.045085 -106.610441 348 5320ft 12kts
10-Jun-21 21:04 35.045205 -106.610461 355 5320ft 0kts
10-Jun-21 21:05 35.045642 -106.610617 315 5320ft 10kts
10-Jun-21 21:06 35.045794 -106.613873 271 5320ft 6kts
10-Jun-21 21:07 35.046931 -106.614509 342 5320ft 0kts
10-Jun-21 21:08 35.046931 -106.614509 342 5320ft 0kts

Navigation Log

Ident Type
Flight plan parsing failed, navigation log unavailable